CheckWX is a tool to help pilots better visualize weather data.  It is not intended as a substitute for an official pre-flight weather briefing.

18:25:09 UTC

KFRG METAR
Republic Airport
Farmingdale, New York, USA
Current

32 mins ago

KFRG 161753Z 28007KT 10SM CLR 06/M03 A3012 RMK AO2 SLP201 T00561033 10056 20011 56026
Observed
Feb-16 @ 17:53 UTC
Wind
  • 280° at 7 KTS
Visibility
10 SM
Flight Rules
VFR
Cloud Levels
  • Clear skies
Temperature
C / 43°F
Dewpoint
-3°C / 27°F
Humidity
53%
Altimeter
30.12" Hg
Pressure
1020.02 hPa
Previous

2 hours ago

KFRG 161653Z 23008KT 10SM CLR 04/M03 A3014 RMK AO2 SLP208 T00441028
Observed
Feb-16 @ 16:53 UTC
Wind
  • 230° at 8 KTS
Visibility
10 SM
Flight Rules
VFR
Cloud Levels
  • Clear skies
Temperature
C / 39°F
Dewpoint
-3°C / 27°F
Humidity
61%
Altimeter
30.14" Hg
Pressure
1020.62 hPa
Previous

3 hours ago

KFRG 161553Z 25011KT 10SM CLR 04/M03 A3018 RMK AO2 SLP219 T00391033
Observed
Feb-16 @ 15:53 UTC
Wind
  • 250° at 11 KTS
Visibility
10 SM
Flight Rules
VFR
Cloud Levels
  • Clear skies
Temperature
C / 39°F
Dewpoint
-3°C / 27°F
Humidity
61%
Altimeter
30.18" Hg
Pressure
1022.02 hPa